Time;durP1;ratioP1;P1;durP2;ratioP2;P2;SDS_P1;SDS_P2;PMS_P1;PMS_P2;Temp;Humidity;BMP_temperature;BMP_pressure;BME280_temperature;BME280_humidity;BME280_pressure;Samples;Min_cycle;Max_cycle;Signal;HPM_P1;HPM_P2
2021/08/16 00:00:11;;;;;;;10.73;9.70;;;20.80;99.90;;;;;;5071285;28;20431;-82
2021/08/16 00:02:40;;;;;;;13.43;11.00;;;20.80;99.90;;;;;;5076042;28;20456;-83
2021/08/16 00:05:09;;;;;;;11.87;10.30;;;20.80;99.90;;;;;;5075421;28;20435;-83
2021/08/16 00:07:36;;;;;;;15.83;11.60;;;20.70;99.90;;;;;;5066402;28;20480;-83
2021/08/16 00:10:03;;;;;;;13.33;10.20;;;20.70;99.90;;;;;;5061389;28;20434;-83
2021/08/16 00:12:30;;;;;;;11.73;10.53;;;20.70;99.90;;;;;;5060475;28;20431;-82
2021/08/16 00:14:57;;;;;;;12.33;10.50;;;20.70;99.90;;;;;;5061442;28;20532;-83
2021/08/16 00:17:24;;;;;;;12.73;10.10;;;20.70;99.90;;;;;;5061609;28;20424;-83
2021/08/16 00:19:55;;;;;;;13.27;10.03;;;20.80;99.90;;;;;;5061553;28;20437;-83
2021/08/16 00:22:22;;;;;;;13.97;10.63;;;20.80;99.90;;;;;;5060800;28;20956;-82
2021/08/16 00:24:49;;;;;;;12.97;11.23;;;20.70;99.90;;;;;;5061306;28;20494;-82
2021/08/16 00:27:16;;;;;;;12.20;10.60;;;20.80;99.90;;;;;;5063005;28;20490;-82
2021/08/16 00:29:43;;;;;;;13.77;10.90;;;20.80;99.90;;;;;;5064353;28;20516;-82
2021/08/16 00:32:10;;;;;;;11.13;9.87;;;20.80;99.90;;;;;;5064318;28;20526;-83
2021/08/16 00:34:37;;;;;;;11.57;10.40;;;20.80;99.90;;;;;;5062930;28;20441;-82
2021/08/16 00:37:06;;;;;;;11.77;10.57;;;20.80;99.90;;;;;;5062827;28;20463;-82
2021/08/16 00:39:33;;;;;;;12.43;11.23;;;20.80;99.90;;;;;;5061690;28;20430;-82
2021/08/16 00:42:00;;;;;;;13.00;11.37;;;20.80;99.90;;;;;;5060982;28;20487;-82
2021/08/16 00:44:27;;;;;;;12.00;10.80;;;20.90;99.90;;;;;;5061550;28;20451;-83
2021/08/16 00:46:54;;;;;;;12.20;10.97;;;20.90;99.90;;;;;;5073726;28;20483;-83
2021/08/16 00:49:21;;;;;;;14.40;12.40;;;20.80;99.90;;;;;;5080461;28;20438;-84
2021/08/16 00:51:48;;;;;;;13.60;12.00;;;20.80;99.90;;;;;;5080759;28;20494;-83
2021/08/16 00:54:17;;;;;;;13.80;12.60;;;20.80;99.90;;;;;;5074719;28;20456;-82
2021/08/16 00:56:44;;;;;;;15.17;13.60;;;20.70;99.90;;;;;;5063392;28;20454;-81
2021/08/16 00:59:12;;;;;;;22.07;14.67;;;20.70;99.90;;;;;;5063685;28;20961;-82
2021/08/16 01:01:39;;;;;;;18.30;14.37;;;20.70;99.90;;;;;;5064296;28;20437;-82
2021/08/16 01:04:07;;;;;;;15.77;13.60;;;20.80;99.90;;;;;;5064656;28;20438;-82
2021/08/16 01:06:34;;;;;;;15.97;12.77;;;20.80;99.90;;;;;;5064960;28;20454;-82
2021/08/16 01:09:01;;;;;;;15.53;13.63;;;20.80;99.90;;;;;;5063494;28;20483;-83
2021/08/16 01:11:29;;;;;;;16.43;13.90;;;20.80;99.90;;;;;;5064956;28;20481;-83
2021/08/16 01:13:56;;;;;;;15.77;14.23;;;20.80;99.90;;;;;;5064461;28;20964;-83
2021/08/16 01:16:23;;;;;;;16.83;14.33;;;20.70;99.90;;;;;;5065097;28;20478;-82
2021/08/16 01:18:51;;;;;;;15.67;14.10;;;20.70;99.90;;;;;;5069996;28;20405;-83
2021/08/16 01:21:19;;;;;;;16.70;14.47;;;20.80;99.90;;;;;;5073385;28;20471;-82
2021/08/16 01:23:47;;;;;;;15.33;13.73;;;20.80;99.90;;;;;;5074307;28;20430;-82
2021/08/16 01:26:15;;;;;;;15.30;13.53;;;20.80;99.90;;;;;;5078239;28;20435;-84
2021/08/16 01:28:43;;;;;;;15.33;13.83;;;20.80;99.90;;;;;;5077556;28;20916;-82
2021/08/16 01:31:11;;;;;;;17.30;13.80;;;20.80;99.90;;;;;;5076855;28;20452;-82
2021/08/16 01:33:40;;;;;;;14.87;12.67;;;20.80;99.90;;;;;;5076893;28;20453;-82
2021/08/16 01:36:07;;;;;;;16.40;14.00;;;20.80;99.90;;;;;;5078561;28;20479;-82
2021/08/16 01:38:36;;;;;;;16.73;14.23;;;20.80;99.90;;;;;;5078483;28;20414;-82
2021/08/16 01:41:04;;;;;;;16.67;13.57;;;20.80;99.90;;;;;;5075137;28;20419;-82
2021/08/16 01:43:31;;;;;;;14.07;12.67;;;20.90;99.90;;;;;;5076197;28;20840;-83
2021/08/16 01:46:00;;;;;;;15.87;12.17;;;20.90;99.90;;;;;;5078744;28;20470;-85
2021/08/16 01:48:28;;;;;;;17.93;12.37;;;21.00;99.90;;;;;;5074349;28;20490;-82
2021/08/16 01:50:55;;;;;;;14.60;11.93;;;21.10;99.90;;;;;;5072798;28;20464;-81
2021/08/16 01:53:22;;;;;;;20.03;12.03;;;21.10;99.90;;;;;;5074015;28;20431;-81
2021/08/16 01:55:49;;;;;;;12.90;11.70;;;21.30;99.90;;;;;;5075492;28;20444;-81
2021/08/16 01:58:16;;;;;;;13.23;11.83;;;21.30;99.90;;;;;;5072483;28;20445;-82
2021/08/16 02:00:44;;;;;;;12.30;11.07;;;21.40;99.90;;;;;;5071927;28;20434;-83
2021/08/16 02:03:12;;;;;;;13.20;11.17;;;21.40;99.90;;;;;;5076855;28;20616;-83
2021/08/16 02:05:39;;;;;;;14.20;10.80;;;21.50;99.90;;;;;;5078642;28;20450;-84
2021/08/16 02:08:06;;;;;;;11.10;10.03;;;21.50;99.90;;;;;;5079017;28;20483;-85
2021/08/16 02:10:33;;;;;;;11.50;10.40;;;21.60;99.90;;;;;;5079255;28;20449;-83
2021/08/16 02:13:00;;;;;;;13.90;10.43;;;21.60;99.90;;;;;;5078587;28;20442;-85
2021/08/16 02:15:28;;;;;;;16.00;11.00;;;21.60;99.90;;;;;;5078753;28;20468;-84
2021/08/16 02:17:55;;;;;;;14.13;11.67;;;21.60;99.90;;;;;;5076272;28;20442;-82
2021/08/16 02:20:23;;;;;;;10.57;9.57;;;21.60;99.90;;;;;;5073621;28;20453;-83
2021/08/16 02:22:50;;;;;;;11.13;9.80;;;21.60;99.90;;;;;;5075459;28;20430;-83
2021/08/16 02:25:17;;;;;;;11.57;10.37;;;21.60;99.90;;;;;;5074691;28;20438;-82
2021/08/16 02:27:46;;;;;;;12.67;11.47;;;21.60;99.90;;;;;;5073559;28;20483;-84
2021/08/16 02:30:14;;;;;;;15.07;11.10;;;21.50;99.90;;;;;;5071842;28;20463;-81
2021/08/16 02:32:41;;;;;;;11.93;10.60;;;21.50;99.90;;;;;;5072209;28;20403;-83
2021/08/16 02:35:10;;;;;;;12.30;11.03;;;21.50;99.90;;;;;;5072466;28;20451;-83
2021/08/16 02:37:38;;;;;;;12.33;11.13;;;21.40;99.90;;;;;;5063013;28;20465;-83
2021/08/16 02:40:07;;;;;;;12.60;10.20;;;21.40;99.90;;;;;;5068839;28;20997;-83
2021/08/16 02:42:34;;;;;;;16.37;10.13;;;21.40;99.90;;;;;;5068667;28;20427;-83
2021/08/16 02:45:01;;;;;;;11.90;10.63;;;21.40;99.90;;;;;;5069421;28;20473;-84
2021/08/16 02:47:28;;;;;;;11.73;10.33;;;21.40;99.90;;;;;;5067725;28;20518;-82
2021/08/16 02:49:55;;;;;;;11.67;10.47;;;21.40;99.90;;;;;;5062948;28;20453;-84
2021/08/16 02:52:22;;;;;;;11.27;10.10;;;21.50;99.90;;;;;;5069322;28;20508;-83
2021/08/16 02:54:51;;;;;;;11.33;9.67;;;21.40;99.90;;;;;;5073467;28;20484;-83
2021/08/16 02:57:21;;;;;;;10.33;9.33;;;21.40;99.90;;;;;;5078283;28;20413;-81
2021/08/16 02:59:48;;;;;;;11.20;9.77;;;21.40;99.70;;;;;;5077941;28;20416;-84
2021/08/16 03:02:15;;;;;;;11.13;9.67;;;21.40;99.60;;;;;;5077108;28;20440;-84
2021/08/16 03:04:42;;;;;;;11.67;9.30;;;21.40;99.50;;;;;;5065244;28;20448;-82
2021/08/16 03:07:10;;;;;;;13.50;9.40;;;21.40;99.30;;;;;;5078197;28;20491;-83
2021/08/16 03:09:37;;;;;;;14.20;9.70;;;21.40;99.50;;;;;;5077900;28;20476;-83
2021/08/16 03:12:06;;;;;;;10.83;9.13;;;21.30;99.10;;;;;;5078189;28;20452;-82
2021/08/16 03:14:33;;;;;;;11.10;9.83;;;21.40;99.10;;;;;;5077912;28;20512;-81
2021/08/16 03:17:00;;;;;;;11.13;10.03;;;21.40;98.60;;;;;;5063420;28;20539;-83
2021/08/16 03:19:27;;;;;;;11.90;9.97;;;21.30;98.40;;;;;;5060358;28;20481;-83
2021/08/16 03:21:54;;;;;;;10.10;9.20;;;21.40;98.30;;;;;;5064251;28;20466;-84
2021/08/16 03:24:21;;;;;;;9.27;8.40;;;21.40;97.60;;;;;;5067389;28;20453;-82
2021/08/16 03:26:48;;;;;;;10.43;9.00;;;21.40;96.90;;;;;;5068859;28;20473;-83
2021/08/16 03:29:17;;;;;;;9.90;8.90;;;21.40;96.40;;;;;;5068216;28;20492;-83
2021/08/16 03:31:44;;;;;;;9.80;8.20;;;21.40;96.00;;;;;;5075007;28;20406;-82
2021/08/16 03:34:11;;;;;;;9.87;8.27;;;21.40;95.20;;;;;;5076720;28;20423;-82
2021/08/16 03:36:38;;;;;;;10.50;8.30;;;21.40;94.90;;;;;;5076106;28;20480;-83
2021/08/16 03:39:05;;;;;;;14.37;8.73;;;21.40;95.10;;;;;;5077611;28;20463;-83
2021/08/16 03:41:32;;;;;;;8.83;7.93;;;21.40;94.30;;;;;;5077750;28;20461;-83
2021/08/16 03:43:59;;;;;;;10.20;8.00;;;21.50;94.00;;;;;;5071198;28;20473;-82
2021/08/16 03:46:28;;;;;;;9.63;7.47;;;21.40;93.50;;;;;;5061974;28;20484;-83
2021/08/16 03:48:55;;;;;;;12.53;7.90;;;21.40;92.60;;;;;;5061654;28;20495;-81
2021/08/16 03:51:23;;;;;;;11.27;8.20;;;21.40;92.60;;;;;;5064630;28;20458;-83
2021/08/16 03:53:49;;;;;;;10.47;8.10;;;21.40;92.30;;;;;;5068967;28;20464;-83
2021/08/16 03:56:16;;;;;;;15.60;8.27;;;21.40;92.30;;;;;;5069749;28;20468;-84
2021/08/16 03:58:43;;;;;;;8.97;8.00;;;21.40;92.30;;;;;;5071266;28;20472;-84
2021/08/16 04:01:11;;;;;;;13.77;7.70;;;21.40;92.30;;;;;;5075537;28;20459;-83
2021/08/16 04:03:41;;;;;;;8.17;7.37;;;21.40;92.30;;;;;;5070688;28;20432;-82
2021/08/16 04:06:08;;;;;;;10.13;7.30;;;21.40;92.30;;;;;;5071102;28;20477;-82
2021/08/16 04:08:38;;;;;;;10.10;8.30;;;21.40;92.30;;;;;;5070053;28;20459;-82
2021/08/16 04:11:06;;;;;;;12.43;8.67;;;21.40;92.30;;;;;;5068142;28;20438;-82
2021/08/16 04:13:33;;;;;;;11.60;8.43;;;21.40;92.10;;;;;;5073325;28;20457;-82
2021/08/16 04:16:00;;;;;;;8.70;7.80;;;21.30;92.20;;;;;;5070554;28;20519;-82
2021/08/16 04:18:27;;;;;;;10.53;7.80;;;21.30;91.80;;;;;;5070398;28;20468;-82
2021/08/16 04:20:55;;;;;;;12.53;7.80;;;21.30;92.20;;;;;;5069800;28;20444;-82
2021/08/16 04:23:22;;;;;;;8.10;7.30;;;21.20;91.90;;;;;;5067323;28;20971;-83
2021/08/16 04:25:49;;;;;;;8.30;7.50;;;21.20;92.20;;;;;;5067910;28;20455;-81
2021/08/16 04:28:16;;;;;;;23.30;8.27;;;21.20;91.60;;;;;;5068918;28;20476;-81
2021/08/16 04:30:45;;;;;;;14.00;7.13;;;21.20;91.40;;;;;;5070719;28;20435;-81
2021/08/16 04:33:12;;;;;;;8.07;7.30;;;21.10;91.60;;;;;;5075034;28;20921;-83
2021/08/16 04:35:39;;;;;;;7.87;7.17;;;21.10;91.10;;;;;;5064659;28;20492;-83
2021/08/16 04:38:08;;;;;;;9.03;7.13;;;21.00;90.60;;;;;;5063683;28;21025;-82
2021/08/16 04:40:35;;;;;;;8.87;7.20;;;21.00;90.50;;;;;;5063724;28;20830;-83
2021/08/16 04:43:02;;;;;;;13.10;7.40;;;20.90;90.30;;;;;;5069341;28;20516;-84
2021/08/16 04:45:29;;;;;;;10.00;7.97;;;20.90;90.50;;;;;;5075825;28;20484;-83
2021/08/16 04:47:56;;;;;;;10.83;7.30;;;20.90;90.20;;;;;;5069306;28;21084;-82
2021/08/16 04:50:23;;;;;;;9.37;7.13;;;20.80;90.10;;;;;;5074246;28;20482;-81
2021/08/16 04:52:51;;;;;;;10.80;7.23;;;20.80;90.00;;;;;;5074978;28;20466;-84
2021/08/16 04:55:19;;;;;;;7.30;6.60;;;20.90;89.40;;;;;;5069595;28;20488;-83
2021/08/16 04:57:46;;;;;;;9.70;7.17;;;20.80;88.50;;;;;;5077406;28;20455;-83
2021/08/16 05:00:15;;;;;;;8.57;6.80;;;20.80;88.30;;;;;;5070785;28;20471;-84
2021/08/16 05:02:43;;;;;;;11.57;7.13;;;20.80;86.10;;;;;;5077870;28;20876;-83
2021/08/16 05:05:12;;;;;;;8.53;5.80;;;20.80;86.10;;;;;;5074715;28;20499;-83
2021/08/16 05:07:39;;;;;;;6.70;5.43;;;20.70;86.00;;;;;;5070315;28;20452;-83
2021/08/16 05:10:07;;;;;;;11.17;6.60;;;20.70;86.00;;;;;;5068860;28;20487;-82
2021/08/16 05:12:37;;;;;;;13.57;7.30;;;20.70;86.00;;;;;;5072146;28;20452;-82
2021/08/16 05:15:04;;;;;;;7.13;6.43;;;20.70;86.00;;;;;;5075972;28;20462;-83
2021/08/16 05:17:32;;;;;;;7.63;6.37;;;20.60;86.60;;;;;;5062878;28;20483;-83
2021/08/16 05:19:59;;;;;;;7.27;6.00;;;20.60;85.90;;;;;;5063019;28;20489;-84
2021/08/16 05:22:27;;;;;;;8.63;6.30;;;20.60;83.80;;;;;;5064976;28;20525;-83
2021/08/16 05:24:54;;;;;;;6.80;5.90;;;20.70;82.70;;;;;;5071372;28;20490;-83
2021/08/16 05:27:21;;;;;;;11.07;5.50;;;20.70;81.40;;;;;;5064894;28;20431;-82
2021/08/16 05:29:49;;;;;;;9.43;6.33;;;20.60;81.50;;;;;;5069506;28;20582;-84
2021/08/16 05:32:16;;;;;;;10.57;5.50;;;20.60;80.60;;;;;;5070681;28;20455;-83
2021/08/16 05:34:44;;;;;;;6.10;5.10;;;20.60;79.90;;;;;;5066822;28;21020;-83
2021/08/16 05:37:11;;;;;;;6.67;5.60;;;20.70;78.80;;;;;;5065773;28;20452;-84
2021/08/16 05:39:38;;;;;;;6.60;4.93;;;20.70;77.40;;;;;;5068510;28;20555;-84
2021/08/16 05:42:05;;;;;;;7.60;4.97;;;20.70;76.10;;;;;;5075339;28;20442;-82
2021/08/16 05:44:33;;;;;;;4.60;3.80;;;20.70;72.50;;;;;;5076801;28;20427;-83
2021/08/16 05:47:03;;;;;;;5.50;2.90;;;20.60;60.60;;;;;;5078216;28;20462;-85
2021/08/16 05:49:30;;;;;;;4.70;3.33;;;20.60;56.60;;;;;;5078713;28;20558;-87
2021/08/16 05:51:57;;;;;;;4.93;3.07;;;20.60;57.00;;;;;;5077067;28;20488;-84
2021/08/16 05:54:24;;;;;;;5.73;3.80;;;20.70;56.70;;;;;;5076148;28;20440;-82
2021/08/16 05:56:51;;;;;;;7.07;3.90;;;20.70;56.60;;;;;;5078758;28;20555;-83
2021/08/16 05:59:18;;;;;;;5.90;4.70;;;20.90;62.70;;;;;;5078225;28;20441;-84
2021/08/16 06:01:46;;;;;;;10.90;5.30;;;21.00;65.20;;;;;;5078108;28;20446;-84
2021/08/16 06:04:14;;;;;;;6.00;4.40;;;21.10;67.50;;;;;;5071380;28;20452;-81
2021/08/16 06:06:41;;;;;;;6.53;4.40;;;21.00;68.80;;;;;;5063006;28;20562;-83
2021/08/16 06:09:08;;;;;;;8.63;5.83;;;21.00;69.50;;;;;;5060122;28;20514;-82
2021/08/16 06:11:35;;;;;;;11.50;5.50;;;21.00;69.50;;;;;;5062669;28;20444;-83
2021/08/16 06:14:02;;;;;;;7.70;5.00;;;21.00;68.70;;;;;;5066410;28;20484;-83
2021/08/16 06:16:29;;;;;;;5.17;4.10;;;21.00;69.40;;;;;;5077278;28;20493;-83
2021/08/16 06:18:56;;;;;;;6.43;4.80;;;21.00;68.70;;;;;;5074712;28;20456;-83
2021/08/16 06:21:24;;;;;;;5.20;4.47;;;21.00;68.70;;;;;;5066523;28;20446;-83
2021/08/16 06:23:51;;;;;;;8.73;3.80;;;21.00;68.20;;;;;;5068765;28;20475;-84
2021/08/16 06:26:18;;;;;;;7.70;4.33;;;21.10;66.60;;;;;;5069364;28;20478;-82
2021/08/16 06:28:45;;;;;;;4.87;3.90;;;21.20;65.30;;;;;;5074070;28;20444;-82
2021/08/16 06:31:13;;;;;;;7.50;4.80;;;21.30;64.20;;;;;;5077174;28;20452;-83
2021/08/16 06:33:40;;;;;;;6.93;4.03;;;21.40;63.10;;;;;;5068401;28;20423;-83
2021/08/16 06:36:08;;;;;;;8.23;3.73;;;21.50;61.50;;;;;;5065103;28;20561;-82
2021/08/16 06:38:36;;;;;;;4.60;3.87;;;21.50;60.60;;;;;;5062556;28;20444;-82
2021/08/16 06:41:04;;;;;;;4.50;3.50;;;21.80;60.20;;;;;;5072181;28;20469;-83
2021/08/16 06:43:33;;;;;;;8.20;3.27;;;21.90;57.20;;;;;;5076124;28;20457;-83
2021/08/16 06:46:00;;;;;;;5.10;3.43;;;21.90;55.30;;;;;;5075891;28;20453;-83
2021/08/16 06:48:27;;;;;;;4.87;2.80;;;21.90;54.30;;;;;;5077763;28;20452;-83
2021/08/16 06:50:54;;;;;;;4.03;3.03;;;22.00;53.40;;;;;;5077290;28;20456;-83
2021/08/16 06:53:21;;;;;;;4.07;2.70;;;22.10;51.70;;;;;;5071981;28;20420;-82
2021/08/16 06:55:50;;;;;;;5.23;2.80;;;21.90;50.60;;;;;;5067402;28;20504;-83
2021/08/16 06:58:17;;;;;;;7.33;3.37;;;21.90;51.60;;;;;;5066964;28;20482;-84
2021/08/16 07:00:45;;;;;;;6.30;2.73;;;22.00;50.80;;;;;;5067806;28;20435;-82
2021/08/16 07:03:12;;;;;;;4.70;3.03;;;22.20;50.90;;;;;;5060942;28;20468;-83
2021/08/16 07:05:43;;;;;;;4.07;2.80;;;22.30;50.40;;;;;;5059804;28;20485;-83
2021/08/16 07:08:10;;;;;;;4.40;3.00;;;22.30;50.00;;;;;;5060375;28;20414;-82
2021/08/16 07:10:37;;;;;;;4.73;2.90;;;22.40;49.70;;;;;;5060409;28;20507;-83
2021/08/16 07:13:06;;;;;;;6.23;3.47;;;22.20;50.90;;;;;;5061315;28;20488;-84
2021/08/16 07:15:33;;;;;;;5.57;3.00;;;22.10;51.80;;;;;;5068171;28;20473;-83
2021/08/16 07:18:00;;;;;;;5.47;3.30;;;22.00;52.80;;;;;;5074082;28;20445;-82
2021/08/16 07:20:29;;;;;;;5.60;3.53;;;22.00;53.50;;;;;;5069012;28;20868;-83
2021/08/16 07:22:56;;;;;;;5.20;3.70;;;22.20;53.60;;;;;;5067670;28;20459;-83
2021/08/16 07:25:24;;;;;;;5.07;3.27;;;22.10;54.50;;;;;;5066438;28;20919;-82
2021/08/16 07:27:52;;;;;;;8.43;3.80;;;22.10;55.10;;;;;;5064271;28;20457;-83
2021/08/16 07:30:20;;;;;;;5.27;3.80;;;21.90;55.40;;;;;;5062447;28;20515;-83
2021/08/16 07:32:47;;;;;;;4.57;3.97;;;22.00;55.60;;;;;;5062830;28;20584;-83
2021/08/16 07:35:14;;;;;;;4.40;3.97;;;22.10;54.40;;;;;;5060921;28;20473;-82
2021/08/16 07:37:41;;;;;;;4.90;3.80;;;22.00;55.20;;;;;;5065457;28;20503;-83
2021/08/16 07:40:10;;;;;;;5.57;4.07;;;21.80;55.40;;;;;;5074408;28;20953;-82
2021/08/16 07:42:38;;;;;;;6.00;4.17;;;21.80;55.30;;;;;;5074362;28;20444;-82
2021/08/16 07:45:07;;;;;;;6.17;3.80;;;21.70;55.40;;;;;;5074201;28;20537;-83
2021/08/16 07:47:35;;;;;;;4.10;3.47;;;21.50;55.80;;;;;;5075615;28;20497;-83
2021/08/16 07:50:02;;;;;;;5.20;3.43;;;21.50;56.70;;;;;;5076454;28;20469;-84
2021/08/16 07:52:29;;;;;;;6.30;3.90;;;21.40;57.20;;;;;;5077404;28;20451;-81
2021/08/16 07:54:56;;;;;;;7.90;4.30;;;21.40;58.20;;;;;;5076616;28;20441;-82
2021/08/16 07:57:23;;;;;;;6.23;3.90;;;21.40;58.20;;;;;;5077347;28;20411;-82
2021/08/16 07:59:50;;;;;;;6.57;3.97;;;21.30;58.60;;;;;;5077146;28;20415;-82
2021/08/16 08:02:17;;;;;;;5.83;3.73;;;21.20;59.10;;;;;;5076265;28;20442;-81
2021/08/16 08:04:45;;;;;;;4.90;3.93;;;21.30;59.80;;;;;;5077354;28;20432;-81
2021/08/16 08:07:12;;;;;;;6.37;4.03;;;21.60;58.20;;;;;;5076898;28;20457;-82
2021/08/16 08:09:39;;;;;;;4.63;3.57;;;21.70;57.60;;;;;;5076780;28;20467;-82
2021/08/16 08:12:06;;;;;;;6.13;3.37;;;21.90;57.60;;;;;;5077073;28;20453;-81
2021/08/16 08:14:33;;;;;;;5.20;3.20;;;22.10;57.10;;;;;;5073958;28;20445;-82
2021/08/16 08:17:00;;;;;;;9.10;3.70;;;22.20;56.00;;;;;;5062770;28;20546;-82
2021/08/16 08:19:27;;;;;;;5.80;3.60;;;22.40;55.20;;;;;;5070471;28;20461;-83
2021/08/16 08:21:58;;;;;;;6.47;3.27;;;22.50;52.80;;;;;;5071846;28;20528;-83
2021/08/16 08:24:25;;;;;;;6.23;2.97;;;22.30;51.00;;;;;;5070988;28;20461;-83
2021/08/16 08:26:52;;;;;;;7.20;2.70;;;22.30;51.00;;;;;;5067724;28;20449;-83
2021/08/16 08:29:19;;;;;;;4.43;2.87;;;22.30;51.00;;;;;;5067779;28;20982;-82
2021/08/16 08:31:46;;;;;;;4.63;3.00;;;22.70;51.40;;;;;;5059719;28;20511;-83
2021/08/16 08:34:13;;;;;;;4.90;3.40;;;22.90;50.20;;;;;;5057690;28;20456;-82
2021/08/16 08:36:40;;;;;;;3.83;2.73;;;22.70;49.10;;;;;;5060984;28;20455;-84
2021/08/16 08:39:09;;;;;;;5.40;2.47;;;22.60;49.90;;;;;;5067070;28;20417;-83
2021/08/16 08:41:37;;;;;;;6.30;2.80;;;22.60;49.00;;;;;;5068134;28;20506;-82
2021/08/16 08:44:10;;;;;;;6.13;3.13;;;22.60;48.80;;;;;;5072810;28;20475;-82
2021/08/16 08:46:39;;;;;;;6.97;3.00;;;22.70;48.50;;;;;;5079841;28;20491;-83
2021/08/16 08:49:07;;;;;;;5.43;2.70;;;22.60;48.80;;;;;;5079787;28;20444;-82
2021/08/16 08:51:36;;;;;;;3.27;2.27;;;22.70;48.10;;;;;;5079684;28;20627;-82
2021/08/16 08:54:03;;;;;;;8.43;2.87;;;22.70;47.30;;;;;;5079644;28;20420;-83
2021/08/16 08:56:31;;;;;;;5.10;2.83;;;22.70;46.90;;;;;;5079296;28;20528;-82
2021/08/16 08:58:58;;;;;;;5.30;2.80;;;22.70;47.20;;;;;;5079075;28;20431;-82
2021/08/16 09:01:27;;;;;;;3.83;2.60;;;23.00;46.80;;;;;;5079215;28;20435;-81
2021/08/16 09:03:56;;;;;;;8.90;3.07;;;23.40;45.80;;;;;;5077218;28;20492;-83
2021/08/16 09:06:30;;;;;;;4.97;2.10;;;23.70;44.90;;;;;;5078183;28;20487;-82
2021/08/16 09:08:57;;;;;;;4.07;2.80;;;23.90;44.40;;;;;;5075873;28;20505;-82
2021/08/16 09:11:27;;;;;;;6.10;2.37;;;23.90;42.70;;;;;;5074142;28;20474;-85
2021/08/16 09:13:57;;;;;;;3.37;2.70;;;23.80;42.30;;;;;;5063111;28;20804;-84
2021/08/16 09:16:25;;;;;;;3.53;2.40;;;23.80;42.30;;;;;;5067109;28;20483;-83
2021/08/16 09:18:52;;;;;;;6.90;3.30;;;23.90;40.90;;;;;;5065695;28;20432;-82
2021/08/16 09:21:28;;;;;;;3.50;2.70;;;24.00;40.80;;;;;;5063636;28;20796;-82
2021/08/16 09:23:57;;;;;;;6.20;2.00;;;24.00;41.00;;;;;;5069580;28;20422;-83
2021/08/16 09:26:26;;;;;;;4.57;2.10;;;24.20;39.20;;;;;;5076868;28;20439;-83
2021/08/16 09:28:55;;;;;;;6.17;2.20;;;24.20;38.90;;;;;;5070790;28;20428;-82
2021/08/16 09:31:24;;;;;;;6.30;2.10;;;23.80;39.80;;;;;;5064219;28;20674;-83
2021/08/16 09:33:56;;;;;;;6.77;2.60;;;23.70;39.30;;;;;;5063603;28;20463;-84
2021/08/16 09:36:33;;;;;;;4.50;2.63;;;23.60;38.90;;;;;;5063616;28;21058;-83
2021/08/16 09:39:00;;;;;;;5.37;2.53;;;23.50;39.40;;;;;;5065319;28;20434;-84
2021/08/16 09:41:29;;;;;;;5.13;2.60;;;23.30;39.10;;;;;;5063001;28;20472;-84
2021/08/16 09:44:09;;;;;;;4.33;2.43;;;23.10;39.70;;;;;;5062307;28;20462;-83
2021/08/16 09:46:36;;;;;;;3.87;2.10;;;23.20;40.10;;;;;;5061546;28;20567;-84
2021/08/16 09:49:07;;;;;;;5.03;2.60;;;23.30;38.90;;;;;;5071693;28;20446;-82
2021/08/16 09:51:37;;;;;;;6.43;2.67;;;23.30;38.70;;;;;;5075977;28;20448;-83
2021/08/16 09:54:05;;;;;;;5.03;2.10;;;23.30;38.50;;;;;;5077055;28;20450;-84
2021/08/16 09:56:32;;;;;;;15.90;3.03;;;23.30;38.10;;;;;;5076592;28;20432;-84
2021/08/16 09:58:59;;;;;;;4.73;2.20;;;23.30;37.80;;;;;;5077087;28;20442;-84
2021/08/16 10:01:30;;;;;;;4.70;2.33;;;23.20;38.20;;;;;;5077473;28;20443;-84
2021/08/16 10:03:57;;;;;;;7.60;2.20;;;23.50;37.70;;;;;;5076072;28;20424;-85
2021/08/16 10:06:26;;;;;;;6.77;2.60;;;23.70;37.50;;;;;;5069301;28;20478;-83
2021/08/16 10:08:55;;;;;;;3.80;2.60;;;23.90;36.60;;;;;;5067864;28;20446;-84
2021/08/16 10:11:22;;;;;;;2.90;1.77;;;24.30;36.00;;;;;;5064435;28;20564;-82
2021/08/16 10:13:51;;;;;;;5.50;1.73;;;24.60;34.70;;;;;;5061669;28;20457;-84
2021/08/16 10:16:22;;;;;;;2.73;1.60;;;24.30;34.30;;;;;;5064216;28;20435;-83
2021/08/16 10:18:54;;;;;;;3.27;2.10;;;24.20;34.40;;;;;;5071874;28;20634;-82
2021/08/16 10:21:23;;;;;;;3.87;2.40;;;24.10;34.40;;;;;;5070520;28;20456;-84
2021/08/16 10:23:52;;;;;;;4.67;2.20;;;24.00;34.80;;;;;;5067843;28;20450;-84
2021/08/16 10:26:28;;;;;;;5.20;2.57;;;23.90;34.70;;;;;;5071035;28;20488;-84
2021/08/16 10:28:56;;;;;;;4.93;2.53;;;24.00;35.70;;;;;;5072056;28;20463;-83
2021/08/16 10:31:31;;;;;;;4.13;2.67;;;24.00;34.20;;;;;;5072272;28;20513;-83
2021/08/16 10:34:00;;;;;;;5.57;2.50;;;23.80;35.10;;;;;;5075180;28;20978;-83
2021/08/16 10:36:27;;;;;;;3.40;2.10;;;23.90;34.50;;;;;;5076639;28;20458;-84
2021/08/16 10:38:56;;;;;;;5.67;2.37;;;23.80;34.40;;;;;;5077180;28;20397;-84
2021/08/16 10:41:29;;;;;;;3.17;2.33;;;24.10;34.60;;;;;;5077970;28;20436;-84
2021/08/16 10:43:57;;;;;;;4.23;2.73;;;24.10;33.20;;;;;;5075672;28;20445;-84
2021/08/16 10:46:25;;;;;;;3.97;2.30;;;24.20;32.40;;;;;;5075934;28;20455;-83
2021/08/16 10:49:04;;;;;;;5.90;2.53;;;24.60;33.50;;;;;;5076721;28;20479;-84
2021/08/16 10:51:43;;;;;;;4.30;2.47;;;24.70;32.80;;;;;;5073957;28;20985;-83
2021/08/16 10:54:23;;;;;;;4.23;2.17;;;24.60;32.80;;;;;;5059045;28;20463;-81
2021/08/16 10:56:52;;;;;;;7.50;2.93;;;24.60;32.80;;;;;;5076138;28;20535;-83
2021/08/16 10:59:20;;;;;;;4.93;2.67;;;24.30;32.50;;;;;;5076047;28;20437;-83
2021/08/16 11:01:48;;;;;;;2.97;2.47;;;24.30;32.50;;;;;;5069464;28;20976;-84
2021/08/16 11:04:26;;;;;;;4.57;2.30;;;23.90;33.20;;;;;;5065919;28;20431;-83
2021/08/16 11:06:54;;;;;;;5.57;3.10;;;23.80;34.40;;;;;;5068904;28;20459;-82
2021/08/16 11:09:26;;;;;;;3.73;2.40;;;23.70;35.00;;;;;;5076495;28;20510;-83
2021/08/16 11:11:54;;;;;;;5.70;2.50;;;23.60;35.00;;;;;;5075775;28;20556;-83
2021/08/16 11:14:25;;;;;;;4.87;2.90;;;23.50;35.40;;;;;;5075908;28;20467;-83
2021/08/16 11:16:53;;;;;;;5.50;2.53;;;23.40;36.00;;;;;;5076495;28;20463;-82
2021/08/16 11:19:23;;;;;;;3.87;3.00;;;23.50;36.00;;;;;;5068167;28;20428;-82
2021/08/16 11:21:54;;;;;;;5.40;3.00;;;23.80;36.00;;;;;;5076666;28;20427;-82
2021/08/16 11:24:30;;;;;;;6.43;3.10;;;24.10;35.20;;;;;;5070697;28;20452;-82
2021/08/16 11:26:58;;;;;;;4.93;2.70;;;24.30;34.50;;;;;;5065641;28;20472;-83
2021/08/16 11:29:26;;;;;;;5.50;2.60;;;24.30;32.50;;;;;;5072161;28;20459;-84
2021/08/16 11:31:58;;;;;;;8.87;2.73;;;24.10;34.10;;;;;;5073658;28;20465;-84
2021/08/16 11:34:28;;;;;;;6.23;2.87;;;24.20;34.60;;;;;;5075887;28;20476;-83
2021/08/16 11:36:55;;;;;;;6.27;3.23;;;24.80;33.40;;;;;;5073183;28;20489;-84
2021/08/16 11:39:30;;;;;;;4.47;2.93;;;24.90;33.00;;;;;;5068948;28;20849;-83
2021/08/16 11:41:59;;;;;;;8.77;3.67;;;24.80;32.90;;;;;;5065930;28;20437;-84
2021/08/16 11:44:27;;;;;;;7.97;3.00;;;24.60;32.80;;;;;;5073089;28;20528;-82
2021/08/16 11:46:54;;;;;;;4.03;2.77;;;24.50;32.70;;;;;;5073343;28;20497;-83
2021/08/16 11:49:25;;;;;;;6.50;2.87;;;24.40;32.60;;;;;;5073036;28;20457;-83
2021/08/16 11:51:54;;;;;;;5.10;3.20;;;24.40;31.50;;;;;;5075580;28;20466;-83
2021/08/16 11:54:26;;;;;;;3.13;2.50;;;24.50;31.60;;;;;;5076650;28;20413;-86
2021/08/16 11:56:55;;;;;;;3.10;2.80;;;24.50;31.30;;;;;;5077578;28;20463;-85
2021/08/16 11:59:23;;;;;;;3.83;2.73;;;24.20;29.90;;;;;;5077230;28;20478;-85
2021/08/16 12:01:50;;;;;;;7.70;3.20;;;24.10;30.70;;;;;;5064591;28;20461;-83
2021/08/16 12:04:18;;;;;;;7.40;3.03;;;24.00;30.60;;;;;;5062959;28;20455;-83
2021/08/16 12:06:49;;;;;;;6.97;2.93;;;23.80;31.10;;;;;;5061685;28;20478;-83
2021/08/16 12:09:17;;;;;;;5.07;3.60;;;23.70;31.90;;;;;;5062200;28;20832;-83
2021/08/16 12:11:45;;;;;;;4.70;3.10;;;23.90;32.10;;;;;;5062598;28;20482;-83
2021/08/16 12:14:13;;;;;;;6.00;2.67;;;24.30;31.00;;;;;;5061512;28;20982;-82
2021/08/16 12:16:40;;;;;;;3.80;3.20;;;24.50;30.40;;;;;;5060582;28;20550;-84
2021/08/16 12:19:08;;;;;;;5.30;2.73;;;24.60;31.10;;;;;;5060334;28;20528;-83
2021/08/16 12:21:35;;;;;;;4.90;3.07;;;24.40;31.80;;;;;;5070242;28;20501;-83
2021/08/16 12:24:06;;;;;;;4.00;2.60;;;24.30;32.50;;;;;;5069085;28;21037;-83
2021/08/16 12:26:35;;;;;;;7.63;3.47;;;24.50;32.70;;;;;;5076699;28;20493;-83
2021/08/16 12:29:03;;;;;;;3.87;2.40;;;24.40;32.60;;;;;;5077171;28;20940;-84
2021/08/16 12:31:32;;;;;;;4.50;2.73;;;24.30;32.50;;;;;;5074179;28;20486;-83
2021/08/16 12:34:02;;;;;;;4.00;2.60;;;24.10;32.30;;;;;;5078397;28;20450;-83
2021/08/16 12:36:31;;;;;;;5.13;2.70;;;24.00;32.20;;;;;;5077249;28;20464;-82
2021/08/16 12:39:00;;;;;;;6.60;2.90;;;24.40;32.60;;;;;;5073049;28;20429;-83
2021/08/16 12:41:29;;;;;;;3.33;2.70;;;24.50;32.70;;;;;;5064406;28;20951;-82
2021/08/16 12:43:58;;;;;;;5.40;3.23;;;24.70;31.90;;;;;;5062708;28;20456;-83